Pacific Titan — WCZ6844 — position and weather

sailwx.info

Track history (hours):
 
Tides and Currents Weather Stations Pressure Air Temp Water Temp Dewpoint Dewpoint Depression Visibility Wind Speed Wind Dir Waves Ship Positions

Pacific Titan

Owner: WESTERN TOWBOAT CO, SEATTLE, WA. More information available from US FCC via Universal Licensing System and Coast Guard Vessel Documentation Center.

Last reported at 2014-Oct-25 03:19 UTC. Time now 2014-Oct-25 09:29 UTC.
Position N 50°30' W 126°27'.

Type: Tow > 200 m length. MMSI: 338855000.

Date/timePositionNaut miles runAvg speedWind from/ knotsBaromVisibWave heightAir tempDewpointWater temp
2014-Oct-25 03:19N 50°30' W 126°27'7 7.8
2014-Oct-25 02:26N 50°31' W 126°38'7 6.9
2014-Oct-25 01:25N 50°36' W 126°45'7 7.7
2014-Oct-25 00:32N 50°41' W 126°53'9 8.9
2014-Oct-24 23:33N 50°45' W 127°05'8 8.4
2014-Oct-24 22:33N 50°50' W 127°16'9 8.6
2014-Oct-24 21:33N 50°56' W 127°26'9 8.8
2014-Oct-24 20:33N 51°01' W 127°37'9 8.7
2014-Oct-24 19:33N 51°07' W 127°47'17 8.2
2014-Oct-24 17:32N 51°23' W 127°53'  
2014-Oct-17 09:19N 51°21' W 127°53'7 9.6
2014-Oct-17 08:33N 51°14' W 127°52'10 9.9
2014-Oct-17 07:33N 51°05' W 127°44'1110.6
2014-Oct-17 06:33N 50°58' W 127°31'1211.6
2014-Oct-17 05:33N 50°51' W 127°16'1211.3
2014-Oct-17 04:28N 50°45' W 127°00'910.1
2014-Oct-17 03:34N 50°39' W 126°49'6510.1
2014-Oct-16 21:07N 50°07' W 125°20'711.2
2014-Oct-16 20:29N 50°01' W 125°13'9 9.9
2014-Oct-16 19:33N 49°55' W 125°03'1010.5
2014-Oct-16 18:33N 49°48' W 124°51'1110.8
2014-Oct-16 17:33N 49°41' W 124°38'1110.8
2014-Oct-16 16:33N 49°35' W 124°24'1110.7
2014-Oct-16 15:33N 49°30' W 124°10'1010.5
2014-Oct-16 14:33N 49°24' W 123°57'1110.5
2014-Oct-16 13:33N 49°18' W 123°43'1110.7
2014-Oct-16 12:34N 49°11' W 123°31'1010.4
2014-Oct-16 11:34N 49°03' W 123°20'10 9.6
2014-Oct-16 10:33N 48°57' W 123°09'9 9.4
2014-Oct-16 09:34N 48°51' W 122°58'10 9.7
2014-Oct-16 08:33N 48°45' W 122°46'8 8.5
2014-Oct-16 07:33N 48°37' W 122°45'9 8.9
2014-Oct-16 06:33N 48°28' W 122°44'13 9.5
2014-Oct-16 05:13N 48°15' W 122°47'6 9.0
2014-Oct-16 04:33N 48°10' W 122°44'6 9.7
2014-Oct-16 03:57N 48°05' W 122°38'410.2
2014-Oct-16 03:32N 48°01' W 122°37'010.9
2014-Oct-16 03:31N 48°01' W 122°37'9 9.7
2014-Oct-16 02:34N 47°54' W 122°28'010.3
2014-Oct-16 02:32N 47°53' W 122°28'1010.5
2014-Oct-16 01:33N 47°43' W 122°26'010.5
2014-Oct-16 01:31N 47°43' W 122°27'8 8.4
2014-Oct-16 00:33N 47°35' W 122°22'1 6.7
2014-Oct-16 00:26N 47°35' W 122°22'2 1.8
2014-Oct-15 23:33N 47°33' W 122°21'0 0.0
2014-Oct-15 23:31N 47°33' W 122°21'1 1.0
2014-Oct-15 22:33N 47°34' W 122°21'0 1.7
2014-Oct-15 22:31N 47°34' W 122°21'6 6.7
2014-Oct-15 21:33N 47°40' W 122°24'0 6.8
2014-Oct-15 21:31N 47°40' W 122°24'2 1.7
2014-Oct-15 20:33N 47°39' W 122°22'0 1.2
2014-Oct-15 20:31N 47°39' W 122°22'  
Track history (hours):
 
Tides and Currents Weather Stations Pressure Air Temp Water Temp Dewpoint Dewpoint Depression Visibility Wind Speed Wind Dir Waves Ship Positions

Pacific Titan

Owner: WESTERN TOWBOAT CO, SEATTLE, WA. More information available from US FCC via Universal Licensing System and Coast Guard Vessel Documentation Center.

Last reported at 2014-Oct-25 03:19 UTC. Time now 2014-Oct-25 09:29 UTC.
Position N 50°30' W 126°27'.

Type: Tow > 200 m length. MMSI: 338855000.

Date/timePositionNaut miles runAvg speedWind from/ knotsBaromVisibWave heightAir tempDewpointWater temp
2014-Oct-25 03:19N 50°30' W 126°27'7 7.8
2014-Oct-25 02:26N 50°31' W 126°38'7 6.9
2014-Oct-25 01:25N 50°36' W 126°45'7 7.7
2014-Oct-25 00:32N 50°41' W 126°53'9 8.9
2014-Oct-24 23:33N 50°45' W 127°05'8 8.4
2014-Oct-24 22:33N 50°50' W 127°16'9 8.6
2014-Oct-24 21:33N 50°56' W 127°26'9 8.8
2014-Oct-24 20:33N 51°01' W 127°37'9 8.7
2014-Oct-24 19:33N 51°07' W 127°47'17 8.2
2014-Oct-24 17:32N 51°23' W 127°53'  
2014-Oct-17 09:19N 51°21' W 127°53'7 9.6
2014-Oct-17 08:33N 51°14' W 127°52'10 9.9
2014-Oct-17 07:33N 51°05' W 127°44'1110.6
2014-Oct-17 06:33N 50°58' W 127°31'1211.6
2014-Oct-17 05:33N 50°51' W 127°16'1211.3
2014-Oct-17 04:28N 50°45' W 127°00'910.1
2014-Oct-17 03:34N 50°39' W 126°49'6510.1
2014-Oct-16 21:07N 50°07' W 125°20'711.2
2014-Oct-16 20:29N 50°01' W 125°13'9 9.9
2014-Oct-16 19:33N 49°55' W 125°03'1010.5
2014-Oct-16 18:33N 49°48' W 124°51'1110.8
2014-Oct-16 17:33N 49°41' W 124°38'1110.8
2014-Oct-16 16:33N 49°35' W 124°24'1110.7
2014-Oct-16 15:33N 49°30' W 124°10'1010.5
2014-Oct-16 14:33N 49°24' W 123°57'1110.5
2014-Oct-16 13:33N 49°18' W 123°43'1110.7
2014-Oct-16 12:34N 49°11' W 123°31'1010.4
2014-Oct-16 11:34N 49°03' W 123°20'10 9.6
2014-Oct-16 10:33N 48°57' W 123°09'9 9.4
2014-Oct-16 09:34N 48°51' W 122°58'10 9.7
2014-Oct-16 08:33N 48°45' W 122°46'8 8.5
2014-Oct-16 07:33N 48°37' W 122°45'9 8.9
2014-Oct-16 06:33N 48°28' W 122°44'13 9.5
2014-Oct-16 05:13N 48°15' W 122°47'6 9.0
2014-Oct-16 04:33N 48°10' W 122°44'6 9.7
2014-Oct-16 03:57N 48°05' W 122°38'410.2
2014-Oct-16 03:32N 48°01' W 122°37'010.9
2014-Oct-16 03:31N 48°01' W 122°37'9 9.7
2014-Oct-16 02:34N 47°54' W 122°28'010.3
2014-Oct-16 02:32N 47°53' W 122°28'1010.5
2014-Oct-16 01:33N 47°43' W 122°26'010.5
2014-Oct-16 01:31N 47°43' W 122°27'8 8.4
2014-Oct-16 00:33N 47°35' W 122°22'1 6.7
2014-Oct-16 00:26N 47°35' W 122°22'2 1.8
2014-Oct-15 23:33N 47°33' W 122°21'0 0.0
2014-Oct-15 23:31N 47°33' W 122°21'1 1.0
2014-Oct-15 22:33N 47°34' W 122°21'0 1.7
2014-Oct-15 22:31N 47°34' W 122°21'6 6.7
2014-Oct-15 21:33N 47°40' W 122°24'0 6.8
2014-Oct-15 21:31N 47°40' W 122°24'2 1.7
2014-Oct-15 20:33N 47°39' W 122°22'0 1.2
2014-Oct-15 20:31N 47°39' W 122°22'  

Dump ship's entire track history